createdAt,value
2022-11-14T00:03:14.394Z,47.1
2022-11-14T00:08:14.362Z,46.5
2022-11-14T00:13:14.298Z,46.2
2022-11-14T00:18:14.330Z,42.7
2022-11-14T00:23:14.342Z,42.7
2022-11-14T00:28:14.365Z,42.3
2022-11-14T00:33:20.478Z,42.3
2022-11-14T00:38:14.339Z,42.3
2022-11-14T00:43:14.351Z,42.3
2022-11-14T00:48:14.317Z,42.3
2022-11-14T00:53:14.330Z,42.8
2022-11-14T00:58:14.332Z,42.8
2022-11-14T01:03:14.309Z,44
2022-11-14T01:08:14.328Z,44.1
2022-11-14T01:13:14.318Z,45.2
2022-11-14T01:18:15.169Z,46.2
2022-11-14T01:23:14.546Z,45.2
2022-11-14T01:28:14.317Z,46.2
2022-11-14T01:33:14.394Z,45.5
2022-11-14T01:38:14.332Z,46.2
2022-11-14T01:43:14.311Z,46.2
2022-11-14T01:48:14.367Z,45.5
2022-11-14T01:53:14.387Z,45.1
2022-11-14T01:58:14.307Z,42.6
2022-11-14T02:03:14.386Z,41.7
2022-11-14T02:08:14.416Z,41.7
2022-11-14T02:13:14.314Z,41.5
2022-11-14T02:18:14.328Z,41.5
2022-11-14T02:23:14.327Z,41.5
2022-11-14T02:28:14.386Z,41.6
2022-11-14T02:33:14.347Z,41.6
2022-11-14T02:38:14.309Z,41.6
2022-11-14T02:43:14.312Z,40.2
2022-11-14T02:48:14.329Z,39.1
2022-11-14T02:53:14.323Z,36.3
2022-11-14T02:58:14.318Z,36.3
2022-11-14T03:03:14.352Z,35
2022-11-14T03:08:14.308Z,34.6
2022-11-14T03:13:14.312Z,35
2022-11-14T03:18:14.401Z,34.9
2022-11-14T03:23:14.334Z,35
2022-11-14T03:28:14.332Z,34.9
2022-11-14T03:33:14.302Z,34.3
2022-11-14T03:38:14.401Z,34.2
2022-11-14T03:43:14.346Z,34.2
2022-11-14T03:48:14.303Z,34.2
2022-11-14T03:53:14.323Z,34.2
2022-11-14T03:58:14.363Z,34.2
2022-11-14T04:03:14.321Z,36.4
2022-11-14T04:08:14.320Z,38.7
2022-11-14T04:13:14.324Z,41.5
2022-11-14T04:18:14.304Z,43.7
2022-11-14T04:23:14.348Z,43.7
2022-11-14T04:28:14.383Z,43.7
2022-11-14T04:33:14.356Z,41.1
2022-11-14T04:38:14.333Z,41.1
2022-11-14T04:43:14.383Z,40.6
2022-11-14T04:48:14.326Z,40.6
2022-11-14T04:53:14.318Z,40.6
2022-11-14T04:58:14.297Z,39.8
2022-11-14T05:03:14.333Z,39.8
2022-11-14T05:08:14.360Z,39.8
2022-11-14T05:13:14.374Z,40.9
2022-11-14T05:18:14.348Z,41.4
2022-11-14T05:23:14.393Z,43.3
2022-11-14T05:28:14.380Z,43.5
2022-11-14T05:33:14.432Z,45.2
2022-11-14T05:38:14.519Z,45.8
2022-11-14T05:43:14.344Z,47.1
2022-11-14T05:48:14.342Z,48.4
2022-11-14T05:53:14.329Z,49.3
2022-11-14T05:58:14.469Z,50
2022-11-14T06:03:14.872Z,50.8
2022-11-14T06:08:14.322Z,50.8
2022-11-14T06:13:14.430Z,52.7
2022-11-14T06:18:14.352Z,52.7
2022-11-14T06:23:14.343Z,53.6
2022-11-14T06:28:14.421Z,53.6
2022-11-14T06:33:14.340Z,54.1
2022-11-14T06:38:14.368Z,54.4
2022-11-14T06:43:14.408Z,54.4
2022-11-14T06:48:14.393Z,54.7
2022-11-14T06:53:14.363Z,54.4
2022-11-14T06:58:14.384Z,54.4
2022-11-14T07:03:14.424Z,56
2022-11-14T07:08:20.965Z,54.4
2022-11-14T07:13:14.342Z,56
2022-11-14T07:18:14.397Z,56.3
2022-11-14T07:23:18.616Z,56.3
2022-11-14T07:28:14.445Z,58.4
2022-11-14T07:33:14.344Z,56.3
2022-11-14T07:38:14.374Z,58.1
2022-11-14T07:43:14.405Z,58.1
2022-11-14T07:48:14.338Z,55.9
2022-11-14T07:53:14.346Z,55
2022-11-14T07:58:14.319Z,50.1
2022-11-14T08:03:15.671Z,49.3
2022-11-14T08:08:14.315Z,49.1
2022-11-14T08:13:31.435Z,41.8
2022-11-14T08:18:14.357Z,40.4
2022-11-14T08:23:14.373Z,38.9
2022-11-14T08:28:14.520Z,36.9
2022-11-14T08:33:14.394Z,36.3
2022-11-14T08:38:14.379Z,32.1
2022-11-14T08:43:14.403Z,30.2
2022-11-14T08:48:14.445Z,29.9
2022-11-14T08:53:14.394Z,29.5
2022-11-14T08:58:14.410Z,27
2022-11-14T09:03:14.416Z,24.8
2022-11-14T09:13:14.486Z,18.7
2022-11-14T09:18:14.428Z,17.55
2022-11-14T09:23:14.461Z,17
2022-11-14T09:28:14.382Z,16.7
2022-11-14T09:33:14.437Z,16.4
2022-11-14T09:38:14.453Z,16.1
2022-11-14T09:43:14.413Z,15.8
2022-11-14T09:48:14.376Z,15.8
2022-11-14T09:53:14.472Z,15.2
2022-11-14T09:58:14.385Z,15.1
2022-11-14T10:03:14.425Z,15.1
2022-11-14T10:08:14.567Z,15.2
2022-11-14T10:13:14.798Z,15.2
2022-11-14T10:18:14.432Z,15.2
2022-11-14T10:23:14.409Z,15.2
2022-11-14T10:28:14.479Z,15.1
2022-11-14T10:33:14.422Z,14.7
2022-11-14T10:38:15.769Z,14.3
2022-11-14T10:43:16.991Z,13.9
2022-11-14T10:48:14.537Z,13.6
2022-11-14T10:53:14.438Z,13.9
2022-11-14T10:58:14.529Z,13.7
2022-11-14T11:03:14.409Z,12.7
2022-11-14T11:08:36.491Z,12.7
2022-11-14T11:13:14.484Z,12.6
2022-11-14T11:18:14.432Z,12.6
2022-11-14T11:23:14.381Z,12.5
2022-11-14T11:28:14.541Z,12
2022-11-14T11:33:14.568Z,12
2022-11-14T11:38:17.545Z,11
2022-11-14T11:43:37.693Z,10.7
2022-11-14T11:48:14.504Z,11
2022-11-14T11:53:14.419Z,11
2022-11-14T11:58:14.548Z,10.4
2022-11-14T12:03:20.101Z,10.4
2022-11-14T12:08:21.281Z,10.1
2022-11-14T12:13:14.626Z,9.4
2022-11-14T12:18:14.450Z,8.7
2022-11-14T12:23:14.425Z,8.7
2022-11-14T12:28:14.394Z,8.7
2022-11-14T12:33:14.465Z,8.4
2022-11-14T12:38:14.601Z,8.4
2022-11-14T12:43:14.564Z,8.4
2022-11-14T12:48:14.484Z,7.3
2022-11-14T12:53:14.449Z,7.2
2022-11-14T12:58:14.424Z,7.2
2022-11-14T13:03:14.491Z,7.2
2022-11-14T13:08:14.429Z,7.3
2022-11-14T13:13:14.547Z,7.3
2022-11-14T13:18:14.465Z,8
2022-11-14T13:23:14.554Z,8
2022-11-14T13:28:24.663Z,8
2022-11-14T13:33:14.457Z,6.6
2022-11-14T13:38:14.505Z,6.1
2022-11-14T13:43:14.606Z,5.9
2022-11-14T13:48:14.493Z,5.6
2022-11-14T13:53:14.520Z,5.6
2022-11-14T13:58:14.466Z,5.6
2022-11-14T14:03:14.464Z,5.6
2022-11-14T14:08:14.462Z,5.6
2022-11-14T14:13:14.533Z,5.6
2022-11-14T14:18:14.480Z,5.9
2022-11-14T14:23:14.424Z,5.9
2022-11-14T14:28:14.465Z,5.7
2022-11-14T14:33:14.471Z,5.7
2022-11-14T14:38:14.404Z,5.7
2022-11-14T14:43:14.654Z,5.8
2022-11-14T14:48:14.434Z,6.3
2022-11-14T14:53:14.452Z,6.3
2022-11-14T14:58:22.123Z,7.9
2022-11-14T15:03:14.438Z,7.9
2022-11-14T15:08:14.448Z,7.9
2022-11-14T15:13:14.580Z,7.9
2022-11-14T15:18:15.149Z,7.9
2022-11-14T15:23:14.533Z,8.1
2022-11-14T15:28:14.642Z,8.5
2022-11-14T15:33:14.435Z,8.1
2022-11-14T15:38:42.361Z,8.9
2022-11-14T15:43:14.512Z,8.9
2022-11-14T15:48:14.493Z,8.9
2022-11-14T15:53:14.695Z,8.9
2022-11-14T15:58:28.841Z,8.9
2022-11-14T16:03:14.762Z,8.9
2022-11-14T16:08:14.610Z,10.3
2022-11-14T16:13:14.539Z,14.7
2022-11-14T16:18:14.472Z,15.3
2022-11-14T16:23:14.541Z,16.5
2022-11-14T16:28:14.652Z,28
2022-11-14T16:33:14.729Z,28
2022-11-14T16:38:14.533Z,18.7
2022-11-14T16:43:14.613Z,18.7
2022-11-14T16:48:14.438Z,18.7
2022-11-14T16:53:14.522Z,18.7
2022-11-14T16:58:14.575Z,18.7
2022-11-14T17:03:14.454Z,17.4
2022-11-14T17:08:14.486Z,14.9
2022-11-14T17:13:14.496Z,14.9
2022-11-14T17:18:14.441Z,14.9
2022-11-14T17:23:14.669Z,15.3
2022-11-14T17:28:14.560Z,15.3
2022-11-14T17:33:14.490Z,15.3
2022-11-14T17:38:14.556Z,15.3
2022-11-14T17:43:14.510Z,16.3
2022-11-14T17:48:14.465Z,16.3
2022-11-14T17:53:14.611Z,18
2022-11-14T17:58:14.665Z,21.2
2022-11-14T18:03:14.534Z,18
2022-11-14T18:08:14.540Z,16.3
2022-11-14T18:13:14.659Z,16.3
2022-11-14T18:18:14.578Z,16.4
2022-11-14T18:23:14.497Z,16.4
2022-11-14T18:28:14.832Z,16.2
2022-11-14T18:33:16.137Z,16.2
2022-11-14T18:38:15.546Z,16.4
2022-11-14T18:43:15.598Z,16.4
2022-11-14T18:48:15.298Z,15.8
2022-11-14T18:53:22.570Z,15.8
2022-11-14T18:58:14.776Z,17.5
2022-11-14T19:03:15.005Z,19.4
2022-11-14T19:08:16.867Z,19.5
2022-11-14T19:13:19.057Z,20.8
2022-11-14T19:18:14.660Z,20.8
2022-11-14T19:23:14.722Z,20.8
2022-11-14T19:28:14.694Z,22.2
2022-11-14T19:33:14.701Z,22.2
2022-11-14T19:38:14.592Z,20.5
2022-11-14T19:43:14.700Z,19.7
2022-11-14T19:48:14.844Z,19
2022-11-14T19:53:18.522Z,19
2022-11-14T19:58:14.853Z,18.5
2022-11-14T20:03:14.861Z,17.9
2022-11-14T20:08:14.816Z,17.4
2022-11-14T20:13:14.707Z,17.4
2022-11-14T20:18:14.746Z,16.4
2022-11-14T20:23:14.923Z,16.4
2022-11-14T20:28:14.771Z,16.4
2022-11-14T20:33:14.719Z,16.4
2022-11-14T20:38:14.894Z,17.1
2022-11-14T20:43:16.980Z,17.3
2022-11-14T20:48:14.692Z,17.3
2022-11-14T20:53:14.719Z,17.7
2022-11-14T20:58:17.384Z,18.8
2022-11-14T21:03:16.262Z,21
2022-11-14T21:08:22.177Z,22
2022-11-14T21:13:16.482Z,23.5
2022-11-14T21:18:15.104Z,151.6
2022-11-14T21:23:14.814Z,151.6
2022-11-14T21:28:15.190Z,151.6
2022-11-14T21:33:14.736Z,151.6
2022-11-14T21:38:14.982Z,16
2022-11-14T21:43:14.922Z,15.8
2022-11-14T21:48:14.879Z,15.8
2022-11-14T21:53:14.930Z,15.4
2022-11-14T21:58:18.464Z,15.4
2022-11-14T22:03:18.899Z,15.3
2022-11-14T22:08:15.227Z,15.4
2022-11-14T22:13:15.447Z,15.3
2022-11-14T22:18:15.132Z,15.3
2022-11-14T22:23:14.926Z,15.3
2022-11-14T22:28:14.903Z,15.3
2022-11-14T22:33:15.227Z,15.3
2022-11-14T22:38:16.177Z,15
2022-11-14T22:43:14.905Z,14.8
2022-11-14T22:48:15.035Z,14.8
2022-11-14T22:53:16.028Z,14.2
2022-11-14T22:58:15.088Z,14.2
2022-11-14T23:03:20.339Z,14.2
2022-11-14T23:08:15.058Z,14.2
2022-11-14T23:13:17.643Z,14.4
2022-11-14T23:18:15.741Z,14.8
2022-11-14T23:23:16.024Z,16
2022-11-14T23:28:14.992Z,16.4
2022-11-14T23:33:14.816Z,16.4
2022-11-14T23:38:16.040Z,16.6
2022-11-14T23:43:14.894Z,16.6
2022-11-14T23:48:14.996Z,16.7
2022-11-14T23:53:18.709Z,16.7
2022-11-14T23:58:24.617Z,16.7
